KPIH

Pocatello Regional Airport

Pocatello, Idaho, USA
METAR KPIH 190453Z AUTO 20008KT 10SM CLR 14/M07 A2993 RMK AO2 SLP099 T01391067
Observed Flight Rules
Sep-19 @ 04:53 UTC (20 minutes ago) Visual Flight Rules
Wind Visibility Clouds
200° at 8 knots 10 miles
  • Clear skies
Temperatures Readings
Current 14°C / 57°F
Dewpoint -7°C / 19°F
Humidity 23%
Altimeter 29.93" Hg
Pressure 1009.9 hPa
Elevation 1359
METAR KPIH 190453Z AUTO 20008KT 10SM CLR 14/M07 A2993 RMK AO2 SLP099 T01391067
Observed Flight Rules
Sep-19 @ 04:53 UTC
(20 minutes ago)
VFR
Wind Visibility
200° at 8 knots 10 miles
Clouds
  • Clear skies
Temperature Dewpoint
14°C / 57°F -7°C / 19°F
Humidity Altimeter Pressure
23% 29.93" Hg 1009.9 hPa